sensor_id;sensor_type;location;lat;lon;timestamp;pressure;altitude;pressure_sealevel;temperature;humidity
4705;BME280;2366;51.332;6.610;2023-03-23T00:01:04;100267.56;;;16.96;59.30
4705;BME280;2366;51.332;6.610;2023-03-23T00:03:38;100258.97;;;16.93;58.81
4705;BME280;2366;51.332;6.610;2023-03-23T00:06:04;100250.38;;;16.89;58.96
4705;BME280;2366;51.332;6.610;2023-03-23T00:08:36;100261.38;;;16.96;58.97
4705;BME280;2366;51.332;6.610;2023-03-23T00:11:13;100259.41;;;16.88;59.14
4705;BME280;2366;51.332;6.610;2023-03-23T00:13:44;100253.78;;;16.81;59.74
4705;BME280;2366;51.332;6.610;2023-03-23T00:16:12;100261.94;;;16.90;59.46
4705;BME280;2366;51.332;6.610;2023-03-23T00:18:49;100243.19;;;16.90;59.21
4705;BME280;2366;51.332;6.610;2023-03-23T00:21:26;100255.19;;;16.86;59.47
4705;BME280;2366;51.332;6.610;2023-03-23T00:24:11;100247.00;;;16.77;59.42
4705;BME280;2366;51.332;6.610;2023-03-23T00:26:42;100247.59;;;16.81;59.70
4705;BME280;2366;51.332;6.610;2023-03-23T00:29:19;100243.78;;;16.83;59.51
4705;BME280;2366;51.332;6.610;2023-03-23T00:31:47;100244.75;;;16.73;60.21
4705;BME280;2366;51.332;6.610;2023-03-23T00:34:17;100243.50;;;16.67;60.39
4705;BME280;2366;51.332;6.610;2023-03-23T00:36:49;100253.50;;;16.75;60.23
4705;BME280;2366;51.332;6.610;2023-03-23T00:39:15;100253.38;;;16.67;60.81
4705;BME280;2366;51.332;6.610;2023-03-23T00:41:47;100242.09;;;16.63;60.73
4705;BME280;2366;51.332;6.610;2023-03-23T00:44:13;100235.78;;;16.64;60.81
4705;BME280;2366;51.332;6.610;2023-03-23T00:46:48;100234.06;;;16.63;60.89
4705;BME280;2366;51.332;6.610;2023-03-23T00:49:20;100229.72;;;16.62;60.83
4705;BME280;2366;51.332;6.610;2023-03-23T00:51:56;100229.59;;;16.54;61.19
4705;BME280;2366;51.332;6.610;2023-03-23T00:54:23;100230.72;;;16.51;61.15
4705;BME280;2366;51.332;6.610;2023-03-23T00:56:50;100232.13;;;16.55;61.24
4705;BME280;2366;51.332;6.610;2023-03-23T00:59:16;100226.03;;;16.63;60.71
4705;BME280;2366;51.332;6.610;2023-03-23T01:01:42;100233.53;;;16.59;61.22
4705;BME280;2366;51.332;6.610;2023-03-23T01:04:08;100230.44;;;16.54;60.93
4705;BME280;2366;51.332;6.610;2023-03-23T01:06:37;100246.75;;;16.61;61.56
4705;BME280;2366;51.332;6.610;2023-03-23T01:09:08;100242.41;;;16.60;61.01
4705;BME280;2366;51.332;6.610;2023-03-23T01:11:35;100256.78;;;16.49;61.54
4705;BME280;2366;51.332;6.610;2023-03-23T01:14:01;100243.38;;;16.59;61.25
4705;BME280;2366;51.332;6.610;2023-03-23T01:16:29;100230.88;;;16.50;61.62
4705;BME280;2366;51.332;6.610;2023-03-23T01:18:55;100223.97;;;16.47;61.52
4705;BME280;2366;51.332;6.610;2023-03-23T01:21:21;100231.69;;;16.50;61.33
4705;BME280;2366;51.332;6.610;2023-03-23T01:23:50;100204.81;;;16.52;61.25
4705;BME280;2366;51.332;6.610;2023-03-23T01:26:18;100206.50;;;16.53;61.42
4705;BME280;2366;51.332;6.610;2023-03-23T01:28:44;100204.22;;;16.58;61.06
4705;BME280;2366;51.332;6.610;2023-03-23T01:31:12;100204.53;;;16.55;61.29
4705;BME280;2366;51.332;6.610;2023-03-23T01:33:39;100207.22;;;16.55;61.43
4705;BME280;2366;51.332;6.610;2023-03-23T01:36:08;100208.88;;;16.56;61.41
4705;BME280;2366;51.332;6.610;2023-03-23T01:38:35;100193.28;;;16.41;61.79
4705;BME280;2366;51.332;6.610;2023-03-23T01:41:01;100184.28;;;16.42;61.68
4705;BME280;2366;51.332;6.610;2023-03-23T01:43:27;100147.66;;;16.53;60.97
4705;BME280;2366;51.332;6.610;2023-03-23T01:45:52;100153.84;;;16.53;61.67
4705;BME280;2366;51.332;6.610;2023-03-23T01:48:27;100161.16;;;16.51;61.36
4705;BME280;2366;51.332;6.610;2023-03-23T01:53:26;100175.19;;;16.63;61.54
4705;BME280;2366;51.332;6.610;2023-03-23T01:55:54;100185.91;;;16.63;61.66
4705;BME280;2366;51.332;6.610;2023-03-23T01:58:25;100184.22;;;16.62;61.58
4705;BME280;2366;51.332;6.610;2023-03-23T02:00:53;100196.78;;;16.61;61.68
4705;BME280;2366;51.332;6.610;2023-03-23T02:03:21;100183.38;;;16.61;62.11
4705;BME280;2366;51.332;6.610;2023-03-23T02:05:49;100199.28;;;16.63;62.04
4705;BME280;2366;51.332;6.610;2023-03-23T02:08:15;100189.59;;;16.62;62.17
4705;BME280;2366;51.332;6.610;2023-03-23T02:10:43;100180.03;;;16.50;62.33
4705;BME280;2366;51.332;6.610;2023-03-23T02:13:11;100193.28;;;16.41;63.08
4705;BME280;2366;51.332;6.610;2023-03-23T02:21:20;100166.84;;;16.38;63.21
4705;BME280;2366;51.332;6.610;2023-03-23T02:24:12;100167.66;;;16.39;63.18
4705;BME280;2366;51.332;6.610;2023-03-23T02:34:52;100150.81;;;16.19;63.87
4705;BME280;2366;51.332;6.610;2023-03-23T02:37:38;100146.88;;;16.13;64.23
4705;BME280;2366;51.332;6.610;2023-03-23T02:40:12;100139.72;;;16.14;64.44
4705;BME280;2366;51.332;6.610;2023-03-23T02:42:43;100143.69;;;16.10;64.63
4705;BME280;2366;51.332;6.610;2023-03-23T02:45:11;100152.53;;;16.10;64.68
4705;BME280;2366;51.332;6.610;2023-03-23T02:47:39;100149.72;;;16.12;64.90
4705;BME280;2366;51.332;6.610;2023-03-23T02:50:10;100154.38;;;16.10;64.94
4705;BME280;2366;51.332;6.610;2023-03-23T02:52:39;100159.97;;;16.07;65.14
4705;BME280;2366;51.332;6.610;2023-03-23T02:55:05;100152.69;;;15.99;65.38
4705;BME280;2366;51.332;6.610;2023-03-23T02:57:32;100151.13;;;16.06;64.89
4705;BME280;2366;51.332;6.610;2023-03-23T02:59:58;100158.72;;;16.11;65.00
4705;BME280;2366;51.332;6.610;2023-03-23T03:02:28;100154.38;;;16.10;64.69
4705;BME280;2366;51.332;6.610;2023-03-23T03:05:20;100150.00;;;16.09;64.43
4705;BME280;2366;51.332;6.610;2023-03-23T03:08:24;100146.63;;;16.07;64.79
4705;BME280;2366;51.332;6.610;2023-03-23T03:11:07;100155.22;;;16.00;64.44
4705;BME280;2366;51.332;6.610;2023-03-23T03:13:54;100151.97;;;16.16;64.39
4705;BME280;2366;51.332;6.610;2023-03-23T03:19:24;100140.13;;;16.19;63.92
4705;BME280;2366;51.332;6.610;2023-03-23T03:21:52;100138.28;;;16.29;63.42
4705;BME280;2366;51.332;6.610;2023-03-23T03:24:20;100127.16;;;16.24;63.07
4705;BME280;2366;51.332;6.610;2023-03-23T03:26:48;100125.19;;;16.26;63.04
4705;BME280;2366;51.332;6.610;2023-03-23T03:29:17;100133.22;;;16.26;62.84
4705;BME280;2366;51.332;6.610;2023-03-23T03:31:44;100118.34;;;16.14;63.29
4705;BME280;2366;51.332;6.610;2023-03-23T03:34:11;100136.19;;;16.23;62.77
4705;BME280;2366;51.332;6.610;2023-03-23T03:36:39;100132.81;;;16.21;62.64
4705;BME280;2366;51.332;6.610;2023-03-23T03:39:07;100129.59;;;16.08;63.13
4705;BME280;2366;51.332;6.610;2023-03-23T03:41:34;100126.06;;;16.17;63.12
4705;BME280;2366;51.332;6.610;2023-03-23T03:44:01;100127.06;;;16.06;63.26
4705;BME280;2366;51.332;6.610;2023-03-23T03:46:27;100122.69;;;16.15;63.25
4705;BME280;2366;51.332;6.610;2023-03-23T03:48:55;100124.09;;;16.19;63.04
4705;BME280;2366;51.332;6.610;2023-03-23T03:51:25;100123.38;;;16.17;63.19
4705;BME280;2366;51.332;6.610;2023-03-23T03:53:50;100132.25;;;16.17;63.43
4705;BME280;2366;51.332;6.610;2023-03-23T03:56:16;100132.25;;;16.27;63.07
4705;BME280;2366;51.332;6.610;2023-03-23T03:58:43;100135.63;;;16.29;63.23
4705;BME280;2366;51.332;6.610;2023-03-23T04:01:11;100139.53;;;16.35;62.69
4705;BME280;2366;51.332;6.610;2023-03-23T04:03:37;100149.13;;;16.37;63.06
4705;BME280;2366;51.332;6.610;2023-03-23T04:06:03;100144.16;;;16.42;62.40
4705;BME280;2366;51.332;6.610;2023-03-23T04:08:29;100140.38;;;16.35;63.01
4705;BME280;2366;51.332;6.610;2023-03-23T04:10:55;100134.28;;;16.43;62.55
4705;BME280;2366;51.332;6.610;2023-03-23T04:13:21;100135.25;;;16.52;62.32
4705;BME280;2366;51.332;6.610;2023-03-23T04:15:47;100135.81;;;16.46;62.48
4705;BME280;2366;51.332;6.610;2023-03-23T04:18:15;100140.28;;;16.64;61.93
4705;BME280;2366;51.332;6.610;2023-03-23T04:20:44;100144.91;;;16.72;61.62
4705;BME280;2366;51.332;6.610;2023-03-23T04:23:12;100152.69;;;16.66;61.48
4705;BME280;2366;51.332;6.610;2023-03-23T04:25:38;100145.94;;;16.61;61.76
4705;BME280;2366;51.332;6.610;2023-03-23T04:28:05;100143.78;;;16.65;61.36
4705;BME280;2366;51.332;6.610;2023-03-23T04:30:30;100167.34;;;16.61;61.64
4705;BME280;2366;51.332;6.610;2023-03-23T04:32:57;100157.88;;;16.67;61.36
4705;BME280;2366;51.332;6.610;2023-03-23T04:35:25;100152.94;;;16.72;61.27
4705;BME280;2366;51.332;6.610;2023-03-23T04:37:52;100161.09;;;16.71;61.17
4705;BME280;2366;51.332;6.610;2023-03-23T04:40:18;100150.13;;;16.64;60.62
4705;BME280;2366;51.332;6.610;2023-03-23T04:42:44;100160.53;;;16.67;61.20
4705;BME280;2366;51.332;6.610;2023-03-23T04:45:16;100162.56;;;16.55;61.20
4705;BME280;2366;51.332;6.610;2023-03-23T04:47:49;100168.75;;;16.66;61.00
4705;BME280;2366;51.332;6.610;2023-03-23T04:50:24;100178.31;;;16.68;61.02
4705;BME280;2366;51.332;6.610;2023-03-23T04:52:51;100175.75;;;16.67;60.58
4705;BME280;2366;51.332;6.610;2023-03-23T04:55:19;100170.41;;;16.67;60.86
4705;BME280;2366;51.332;6.610;2023-03-23T04:57:45;100171.41;;;16.66;61.03
4705;BME280;2366;51.332;6.610;2023-03-23T05:00:12;100181.81;;;16.69;60.94
4705;BME280;2366;51.332;6.610;2023-03-23T05:02:39;100173.66;;;16.70;60.44
4705;BME280;2366;51.332;6.610;2023-03-23T05:05:06;100168.88;;;16.64;60.69
4705;BME280;2366;51.332;6.610;2023-03-23T05:07:32;100168.06;;;16.54;61.08
4705;BME280;2366;51.332;6.610;2023-03-23T05:09:58;100169.06;;;16.53;61.03
4705;BME280;2366;51.332;6.610;2023-03-23T05:12:23;100174.81;;;16.58;60.88
4705;BME280;2366;51.332;6.610;2023-03-23T05:14:48;100177.09;;;16.53;61.26
4705;BME280;2366;51.332;6.610;2023-03-23T05:17:14;100176.66;;;16.57;60.86
4705;BME280;2366;51.332;6.610;2023-03-23T05:19:42;100180.03;;;16.59;60.58
4705;BME280;2366;51.332;6.610;2023-03-23T05:22:09;100185.06;;;16.72;60.06
4705;BME280;2366;51.332;6.610;2023-03-23T05:24:38;100182.25;;;16.64;60.08
4705;BME280;2366;51.332;6.610;2023-03-23T05:27:03;100186.16;;;16.70;60.08
4705;BME280;2366;51.332;6.610;2023-03-23T05:29:29;100196.22;;;16.58;60.80
4705;BME280;2366;51.332;6.610;2023-03-23T05:31:56;100198.88;;;16.68;60.18
4705;BME280;2366;51.332;6.610;2023-03-23T05:34:25;100186.16;;;16.70;60.16
4705;BME280;2366;51.332;6.610;2023-03-23T05:36:52;100186.72;;;16.73;60.06
4705;BME280;2366;51.332;6.610;2023-03-23T05:39:18;100194.19;;;16.70;60.25
4705;BME280;2366;51.332;6.610;2023-03-23T05:41:44;100193.66;;;16.66;60.21
4705;BME280;2366;51.332;6.610;2023-03-23T05:44:09;100184.50;;;16.59;60.17
4705;BME280;2366;51.332;6.610;2023-03-23T05:46:35;100189.00;;;16.68;60.02
4705;BME280;2366;51.332;6.610;2023-03-23T05:49:00;100189.28;;;16.65;60.36
4705;BME280;2366;51.332;6.610;2023-03-23T05:51:26;100194.34;;;16.68;60.29
4705;BME280;2366;51.332;6.610;2023-03-23T05:53:51;100203.47;;;16.75;60.17
4705;BME280;2366;51.332;6.610;2023-03-23T05:56:17;100193.91;;;16.73;59.54
4705;BME280;2366;51.332;6.610;2023-03-23T05:58:43;100199.13;;;16.74;59.80
4705;BME280;2366;51.332;6.610;2023-03-23T06:01:08;100196.16;;;16.77;59.82
4705;BME280;2366;51.332;6.610;2023-03-23T06:03:34;100187.28;;;16.77;59.69
4705;BME280;2366;51.332;6.610;2023-03-23T06:06:03;100202.53;;;16.67;60.09
4705;BME280;2366;51.332;6.610;2023-03-23T06:08:28;100193.06;;;16.72;59.75
4705;BME280;2366;51.332;6.610;2023-03-23T06:10:54;100191.78;;;16.76;59.73
4705;BME280;2366;51.332;6.610;2023-03-23T06:13:20;100197.44;;;16.73;59.72
4705;BME280;2366;51.332;6.610;2023-03-23T06:15:46;100205.00;;;16.78;59.83
4705;BME280;2366;51.332;6.610;2023-03-23T06:18:12;100207.00;;;16.76;59.63
4705;BME280;2366;51.332;6.610;2023-03-23T06:20:39;100218.13;;;16.71;60.09
4705;BME280;2366;51.332;6.610;2023-03-23T06:23:04;100225.88;;;16.74;59.96
4705;BME280;2366;51.332;6.610;2023-03-23T06:25:30;100216.69;;;16.87;59.40
4705;BME280;2366;51.332;6.610;2023-03-23T06:27:56;100214.72;;;16.89;59.42
4705;BME280;2366;51.332;6.610;2023-03-23T06:30:21;100223.72;;;16.97;59.28
4705;BME280;2366;51.332;6.610;2023-03-23T06:32:47;100221.03;;;16.97;59.01
4705;BME280;2366;51.332;6.610;2023-03-23T06:35:14;100217.13;;;16.92;59.29
4705;BME280;2366;51.332;6.610;2023-03-23T06:37:40;100216.13;;;16.93;58.75
4705;BME280;2366;51.332;6.610;2023-03-23T06:40:07;100215.69;;;16.97;58.71
4705;BME280;2366;51.332;6.610;2023-03-23T06:42:33;100219.34;;;16.96;58.71
4705;BME280;2366;51.332;6.610;2023-03-23T06:44:59;100229.75;;;17.09;58.44
4705;BME280;2366;51.332;6.610;2023-03-23T06:47:27;100226.88;;;17.11;57.97
4705;BME280;2366;51.332;6.610;2023-03-23T06:49:55;100228.47;;;17.13;57.91
4705;BME280;2366;51.332;6.610;2023-03-23T06:52:22;100224.06;;;17.12;57.25
4705;BME280;2366;51.332;6.610;2023-03-23T06:54:48;100228.53;;;17.21;57.70
4705;BME280;2366;51.332;6.610;2023-03-23T06:57:14;100228.75;;;17.38;57.02
4705;BME280;2366;51.332;6.610;2023-03-23T06:59:40;100231.03;;;17.33;57.13
4705;BME280;2366;51.332;6.610;2023-03-23T07:02:08;100234.38;;;17.35;57.14
4705;BME280;2366;51.332;6.610;2023-03-23T07:04:34;100231.41;;;17.10;57.06
4705;BME280;2366;51.332;6.610;2023-03-23T07:07:00;100243.25;;;17.08;57.68
4705;BME280;2366;51.332;6.610;2023-03-23T07:09:26;100242.44;;;16.97;57.99
4705;BME280;2366;51.332;6.610;2023-03-23T07:11:52;100246.88;;;17.16;57.70
4705;BME280;2366;51.332;6.610;2023-03-23T07:14:17;100249.81;;;17.23;57.43
4705;BME280;2366;51.332;6.610;2023-03-23T07:16:42;100253.75;;;17.29;57.27
4705;BME280;2366;51.332;6.610;2023-03-23T07:19:08;100243.63;;;17.50;56.55
4705;BME280;2366;51.332;6.610;2023-03-23T07:21:33;100248.47;;;17.64;55.77
4705;BME280;2366;51.332;6.610;2023-03-23T07:23:58;100250.00;;;17.67;55.56
4705;BME280;2366;51.332;6.610;2023-03-23T07:26:24;100241.03;;;17.58;55.30
4705;BME280;2366;51.332;6.610;2023-03-23T07:28:49;100251.84;;;17.66;55.62
4705;BME280;2366;51.332;6.610;2023-03-23T07:31:15;100246.03;;;17.43;55.55
4705;BME280;2366;51.332;6.610;2023-03-23T07:33:41;100250.97;;;17.48;56.02
4705;BME280;2366;51.332;6.610;2023-03-23T07:36:07;100239.59;;;17.64;55.65
4705;BME280;2366;51.332;6.610;2023-03-23T07:38:33;100253.69;;;17.66;55.21
4705;BME280;2366;51.332;6.610;2023-03-23T07:40:58;100249.59;;;17.62;55.53
4705;BME280;2366;51.332;6.610;2023-03-23T07:43:24;100251.84;;;17.66;55.25
4705;BME280;2366;51.332;6.610;2023-03-23T07:45:50;100255.97;;;17.61;55.46
4705;BME280;2366;51.332;6.610;2023-03-23T07:48:16;100265.34;;;17.75;55.11
4705;BME280;2366;51.332;6.610;2023-03-23T07:50:42;100257.41;;;17.83;54.67
4705;BME280;2366;51.332;6.610;2023-03-23T07:53:07;100259.13;;;17.74;54.55
4705;BME280;2366;51.332;6.610;2023-03-23T07:55:33;100258.38;;;17.54;55.03
4705;BME280;2366;51.332;6.610;2023-03-23T07:57:58;100255.81;;;17.62;54.85
4705;BME280;2366;51.332;6.610;2023-03-23T08:00:24;100253.81;;;17.64;54.73
4705;BME280;2366;51.332;6.610;2023-03-23T08:02:52;100247.31;;;17.67;54.17
4705;BME280;2366;51.332;6.610;2023-03-23T08:05:19;100256.03;;;17.97;53.88
4705;BME280;2366;51.332;6.610;2023-03-23T08:07:46;100257.88;;;18.14;53.22
4705;BME280;2366;51.332;6.610;2023-03-23T08:10:13;100258.63;;;18.24;52.89
4705;BME280;2366;51.332;6.610;2023-03-23T08:12:40;100262.00;;;18.26;52.60
4705;BME280;2366;51.332;6.610;2023-03-23T08:15:07;100258.03;;;18.31;51.52
4705;BME280;2366;51.332;6.610;2023-03-23T08:17:34;100261.41;;;18.33;52.25
4705;BME280;2366;51.332;6.610;2023-03-23T08:20:00;100260.56;;;18.58;51.51
4705;BME280;2366;51.332;6.610;2023-03-23T08:22:26;100266.06;;;18.75;50.88
4705;BME280;2366;51.332;6.610;2023-03-23T08:24:54;100266.28;;;18.81;50.37
4705;BME280;2366;51.332;6.610;2023-03-23T08:27:20;100262.94;;;18.79;50.61
4705;BME280;2366;51.332;6.610;2023-03-23T08:29:46;100253.19;;;19.13;49.58
4705;BME280;2366;51.332;6.610;2023-03-23T08:32:13;100261.53;;;19.01;49.43
4705;BME280;2366;51.332;6.610;2023-03-23T08:34:38;100277.81;;;19.26;49.47
4705;BME280;2366;51.332;6.610;2023-03-23T08:37:04;100278.34;;;19.38;49.19
4705;BME280;2366;51.332;6.610;2023-03-23T08:39:30;100277.22;;;19.14;49.40
4705;BME280;2366;51.332;6.610;2023-03-23T08:41:56;100277.84;;;19.08;49.00
4705;BME280;2366;51.332;6.610;2023-03-23T08:44:21;100279.63;;;19.25;48.79
4705;BME280;2366;51.332;6.610;2023-03-23T08:46:47;100277.94;;;19.24;49.33
4705;BME280;2366;51.332;6.610;2023-03-23T08:49:12;100276.38;;;19.14;48.69
4705;BME280;2366;51.332;6.610;2023-03-23T08:51:38;100285.50;;;18.95;49.54
4705;BME280;2366;51.332;6.610;2023-03-23T08:54:05;100291.41;;;18.98;49.37
4705;BME280;2366;51.332;6.610;2023-03-23T08:56:31;100280.41;;;18.83;49.40
4705;BME280;2366;51.332;6.610;2023-03-23T08:58:56;100299.22;;;18.65;49.81
4705;BME280;2366;51.332;6.610;2023-03-23T09:01:21;100292.72;;;18.32;50.57
4705;BME280;2366;51.332;6.610;2023-03-23T09:03:47;100278.00;;;18.36;50.23
4705;BME280;2366;51.332;6.610;2023-03-23T09:06:12;100281.81;;;18.52;50.27
4705;BME280;2366;51.332;6.610;2023-03-23T09:08:38;100284.34;;;18.53;49.93
4705;BME280;2366;51.332;6.610;2023-03-23T09:11:07;100281.19;;;18.58;49.98
4705;BME280;2366;51.332;6.610;2023-03-23T09:13:35;100279.94;;;18.70;49.83
4705;BME280;2366;51.332;6.610;2023-03-23T09:16:00;100281.44;;;18.46;50.46
4705;BME280;2366;51.332;6.610;2023-03-23T09:18:26;100282.09;;;18.04;51.18
4705;BME280;2366;51.332;6.610;2023-03-23T09:20:53;100281.53;;;18.19;50.95
4705;BME280;2366;51.332;6.610;2023-03-23T09:23:19;100280.00;;;18.16;50.83
4705;BME280;2366;51.332;6.610;2023-03-23T09:25:46;100280.47;;;18.30;50.65
4705;BME280;2366;51.332;6.610;2023-03-23T09:28:12;100285.66;;;18.49;50.18
4705;BME280;2366;51.332;6.610;2023-03-23T09:30:38;100331.50;;;18.56;50.68
4705;BME280;2366;51.332;6.610;2023-03-23T09:33:06;100356.41;;;18.12;54.42
4705;BME280;2366;51.332;6.610;2023-03-23T09:35:34;100370.34;;;17.23;57.51
4705;BME280;2366;51.332;6.610;2023-03-23T09:38:01;100381.69;;;16.68;60.40
4705;BME280;2366;51.332;6.610;2023-03-23T09:48:28;100385.81;;;16.02;63.47
4705;BME280;2366;51.332;6.610;2023-03-23T09:51:08;100387.94;;;15.99;63.85
4705;BME280;2366;51.332;6.610;2023-03-23T09:53:40;100387.50;;;15.94;63.72
4705;BME280;2366;51.332;6.610;2023-03-23T09:56:14;100392.28;;;16.00;64.09
4705;BME280;2366;51.332;6.610;2023-03-23T09:59:00;100387.50;;;15.94;64.41
4705;BME280;2366;51.332;6.610;2023-03-23T10:01:41;100389.06;;;16.06;64.38
4705;BME280;2366;51.332;6.610;2023-03-23T10:07:29;100404.25;;;15.96;64.05
4705;BME280;2366;51.332;6.610;2023-03-23T10:09:57;100409.88;;;15.93;64.72
4705;BME280;2366;51.332;6.610;2023-03-23T10:15:11;100414.75;;;15.78;64.76
4705;BME280;2366;51.332;6.610;2023-03-23T10:23:08;100411.00;;;15.69;66.00
4705;BME280;2366;51.332;6.610;2023-03-23T10:25:37;100426.03;;;15.60;65.75
4705;BME280;2366;51.332;6.610;2023-03-23T10:28:17;100412.59;;;15.72;66.22
4705;BME280;2366;51.332;6.610;2023-03-23T10:30:48;100404.03;;;15.78;66.19
4705;BME280;2366;51.332;6.610;2023-03-23T10:33:21;100408.00;;;15.84;65.67
4705;BME280;2366;51.332;6.610;2023-03-23T10:36:26;100407.97;;;15.74;65.45
4705;BME280;2366;51.332;6.610;2023-03-23T10:41:22;100417.56;;;15.55;65.52
4705;BME280;2366;51.332;6.610;2023-03-23T10:43:47;100422.19;;;15.53;65.77
4705;BME280;2366;51.332;6.610;2023-03-23T10:48:59;100398.03;;;15.55;65.94
4705;BME280;2366;51.332;6.610;2023-03-23T10:51:34;100408.75;;;15.65;65.57
4705;BME280;2366;51.332;6.610;2023-03-23T10:54:02;100403.69;;;15.61;65.84
4705;BME280;2366;51.332;6.610;2023-03-23T10:59:15;100415.38;;;16.01;65.19
4705;BME280;2366;51.332;6.610;2023-03-23T11:01:48;100409.75;;;16.04;65.34
4705;BME280;2366;51.332;6.610;2023-03-23T11:04:16;100412.31;;;16.06;65.31
4705;BME280;2366;51.332;6.610;2023-03-23T11:06:46;100414.81;;;15.97;65.20
4705;BME280;2366;51.332;6.610;2023-03-23T11:09:21;100422.72;;;16.09;65.32
4705;BME280;2366;51.332;6.610;2023-03-23T11:11:57;100410.63;;;16.24;65.50
4705;BME280;2366;51.332;6.610;2023-03-23T11:14:27;100420.25;;;16.27;65.15
4705;BME280;2366;51.332;6.610;2023-03-23T11:16:59;100417.16;;;16.31;64.94
4705;BME280;2366;51.332;6.610;2023-03-23T11:19:36;100412.22;;;16.36;65.10
4705;BME280;2366;51.332;6.610;2023-03-23T11:22:08;100406.19;;;16.54;65.13
4705;BME280;2366;51.332;6.610;2023-03-23T11:24:46;100405.06;;;17.05;65.21
4705;BME280;2366;51.332;6.610;2023-03-23T11:27:13;100401.41;;;17.53;63.88
4705;BME280;2366;51.332;6.610;2023-03-23T11:29:58;100396.09;;;17.81;63.01
4705;BME280;2366;51.332;6.610;2023-03-23T11:32:26;100401.28;;;17.92;61.98
4705;BME280;2366;51.332;6.610;2023-03-23T11:35:05;100389.56;;;17.93;61.50
4705;BME280;2366;51.332;6.610;2023-03-23T11:37:41;100406.16;;;18.06;61.19
4705;BME280;2366;51.332;6.610;2023-03-23T11:42:49;100418.56;;;18.08;61.35
4705;BME280;2366;51.332;6.610;2023-03-23T11:45:35;100405.94;;;17.90;60.36
4705;BME280;2366;51.332;6.610;2023-03-23T11:51:04;100393.75;;;17.31;62.32
4705;BME280;2366;51.332;6.610;2023-03-23T11:58:38;100406.31;;;17.68;62.34
4705;BME280;2366;51.332;6.610;2023-03-23T12:01:32;100406.25;;;17.77;61.94
4705;BME280;2366;51.332;6.610;2023-03-23T12:04:27;100405.06;;;17.99;62.25
4705;BME280;2366;51.332;6.610;2023-03-23T12:10:23;100410.72;;;17.96;62.47
4705;BME280;2366;51.332;6.610;2023-03-23T12:15:49;100408.44;;;17.64;62.12
4705;BME280;2366;51.332;6.610;2023-03-23T12:18:30;100414.34;;;17.68;63.32
4705;BME280;2366;51.332;6.610;2023-03-23T12:23:43;100412.75;;;17.84;63.95
4705;BME280;2366;51.332;6.610;2023-03-23T12:28:55;100411.41;;;17.98;62.55
4705;BME280;2366;51.332;6.610;2023-03-23T12:31:44;100409.78;;;18.15;63.45
4705;BME280;2366;51.332;6.610;2023-03-23T12:34:25;100408.31;;;18.21;61.88
4705;BME280;2366;51.332;6.610;2023-03-23T12:37:29;100410.63;;;17.88;63.50
4705;BME280;2366;51.332;6.610;2023-03-23T12:45:18;100403.25;;;18.18;63.21
4705;BME280;2366;51.332;6.610;2023-03-23T12:48:00;100396.50;;;18.14;63.42
4705;BME280;2366;51.332;6.610;2023-03-23T12:50:33;100399.56;;;18.19;63.05
4705;BME280;2366;51.332;6.610;2023-03-23T12:53:10;100384.88;;;17.95;63.17
4705;BME280;2366;51.332;6.610;2023-03-23T12:55:44;100383.00;;;18.05;63.44
4705;BME280;2366;51.332;6.610;2023-03-23T12:58:16;100382.50;;;18.38;63.03
4705;BME280;2366;51.332;6.610;2023-03-23T13:00:56;100377.59;;;18.69;61.88
4705;BME280;2366;51.332;6.610;2023-03-23T13:03:29;100374.75;;;18.88;61.40
4705;BME280;2366;51.332;6.610;2023-03-23T13:06:36;100367.59;;;18.97;60.66
4705;BME280;2366;51.332;6.610;2023-03-23T13:09:02;100365.78;;;18.80;61.35
4705;BME280;2366;51.332;6.610;2023-03-23T13:11:32;100375.44;;;18.73;61.21
4705;BME280;2366;51.332;6.610;2023-03-23T13:14:16;100373.69;;;18.63;61.00
4705;BME280;2366;51.332;6.610;2023-03-23T13:19:59;100372.16;;;18.79;61.17
4705;BME280;2366;51.332;6.610;2023-03-23T13:22:37;100363.81;;;19.08;60.37
4705;BME280;2366;51.332;6.610;2023-03-23T13:25:10;100358.84;;;19.13;59.80
4705;BME280;2366;51.332;6.610;2023-03-23T13:27:39;100364.72;;;19.17;59.57
4705;BME280;2366;51.332;6.610;2023-03-23T13:30:05;100367.25;;;19.18;59.71
4705;BME280;2366;51.332;6.610;2023-03-23T13:32:42;100364.34;;;19.38;59.63
4705;BME280;2366;51.332;6.610;2023-03-23T13:35:17;100366.38;;;19.70;59.05
4705;BME280;2366;51.332;6.610;2023-03-23T13:37:48;100369.97;;;19.87;58.25
4705;BME280;2366;51.332;6.610;2023-03-23T13:40:26;100366.63;;;19.85;57.80
4705;BME280;2366;51.332;6.610;2023-03-23T13:42:55;100365.56;;;19.78;58.97
4705;BME280;2366;51.332;6.610;2023-03-23T13:45:24;100347.88;;;19.67;58.68
4705;BME280;2366;51.332;6.610;2023-03-23T13:53:52;100391.78;;;19.76;58.46
4705;BME280;2366;51.332;6.610;2023-03-23T13:57:00;100393.19;;;19.62;58.61
4705;BME280;2366;51.332;6.610;2023-03-23T14:01:56;100382.81;;;19.41;59.04
4705;BME280;2366;51.332;6.610;2023-03-23T14:04:30;100377.25;;;19.68;58.96
4705;BME280;2366;51.332;6.610;2023-03-23T14:07:09;100380.09;;;20.01;57.82
4705;BME280;2366;51.332;6.610;2023-03-23T14:09:43;100363.81;;;20.03;58.61
4705;BME280;2366;51.332;6.610;2023-03-23T14:12:19;100370.03;;;19.95;58.95
4705;BME280;2366;51.332;6.610;2023-03-23T14:14:48;100368.06;;;19.71;59.26
4705;BME280;2366;51.332;6.610;2023-03-23T14:17:16;100366.63;;;19.59;59.94
4705;BME280;2366;51.332;6.610;2023-03-23T14:19:46;100363.31;;;19.31;60.51
4705;BME280;2366;51.332;6.610;2023-03-23T14:24:48;100333.91;;;19.03;60.72
4705;BME280;2366;51.332;6.610;2023-03-23T14:27:17;100352.22;;;18.81;61.06
4705;BME280;2366;51.332;6.610;2023-03-23T14:29:43;100356.50;;;18.74;61.70
4705;BME280;2366;51.332;6.610;2023-03-23T14:32:17;100368.97;;;19.01;61.62
4705;BME280;2366;51.332;6.610;2023-03-23T14:34:47;100374.53;;;19.26;59.74
4705;BME280;2366;51.332;6.610;2023-03-23T14:37:15;100358.47;;;19.42;59.66
4705;BME280;2366;51.332;6.610;2023-03-23T14:39:45;100349.78;;;19.48;58.09
4705;BME280;2366;51.332;6.610;2023-03-23T14:42:14;100357.78;;;19.40;58.40
4705;BME280;2366;51.332;6.610;2023-03-23T14:44:44;100348.03;;;19.05;57.35
4705;BME280;2366;51.332;6.610;2023-03-23T14:47:23;100346.31;;;19.56;56.31
4705;BME280;2366;51.332;6.610;2023-03-23T14:49:59;100351.69;;;19.56;55.85
4705;BME280;2366;51.332;6.610;2023-03-23T14:52:27;100339.75;;;19.59;55.46